Time;durP1;ratioP1;P1;durP2;ratioP2;P2;SDS_P1;SDS_P2;PMS_P1;PMS_P2;Temp;Humidity;BMP_temperature;BMP_pressure;BME280_temperature;BME280_humidity;BME280_pressure;Samples;Min_cycle;Max_cycle;Signal;HPM_P1;HPM_P2
2022/03/14 00:02:23;;;;;;;24.30;10.73;;;-1.60;52.90;;;-3.76;49.96;101470.63;10441766;27;96416;-79
2022/03/14 00:07:27;;;;;;;27.40;11.77;;;-1.60;54.40;;;-3.81;49.94;101485.50;10424304;27;96744;-78
2022/03/14 00:12:31;;;;;;;22.30;10.77;;;-1.70;54.20;;;-3.83;49.80;101477.78;10429357;27;98720;-78
2022/03/14 00:17:34;;;;;;;22.30;10.63;;;-1.70;54.90;;;-3.85;50.02;101494.28;10419037;27;96556;-77
2022/03/14 00:22:37;;;;;;;27.30;10.70;;;-1.70;54.10;;;-3.89;50.45;101488.34;10450287;27;96501;-78
2022/03/14 00:27:40;;;;;;;30.60;10.67;;;-1.70;54.20;;;-3.92;50.07;101496.19;10430424;27;97488;-78
2022/03/14 00:32:43;;;;;;;27.30;11.10;;;-1.80;53.70;;;-3.95;50.58;101492.84;10447139;27;96486;-78
2022/03/14 00:37:46;;;;;;;23.57;10.17;;;-1.80;54.70;;;-3.98;50.83;101490.34;10439646;27;96602;-78
2022/03/14 00:42:49;;;;;;;24.67;10.10;;;-1.80;55.10;;;-3.98;51.24;101490.34;10421858;27;96594;-78
2022/03/14 00:47:52;;;;;;;21.27;8.63;;;-1.90;55.80;;;-4.00;50.78;101497.31;10439018;27;96750;-78
2022/03/14 00:52:55;;;;;;;17.73;8.90;;;-1.90;55.30;;;-4.01;51.62;101500.81;10431353;27;97529;-77
2022/03/14 00:57:58;;;;;;;18.77;8.80;;;-1.90;55.40;;;-4.03;51.22;101499.09;10406676;27;96542;-77
2022/03/14 01:03:02;;;;;;;17.97;8.00;;;-1.90;56.50;;;-4.05;51.33;101495.69;10441403;27;96628;-77
2022/03/14 01:08:08;;;;;;;20.17;7.83;;;-1.90;56.30;;;-4.07;51.15;101487.13;10426766;27;96533;-78
2022/03/14 01:13:11;;;;;;;16.77;7.17;;;-1.90;55.80;;;-4.10;51.63;101502.75;10439042;27;96491;-77
2022/03/14 01:18:14;;;;;;;18.70;7.90;;;-2.00;56.30;;;-4.12;51.19;101499.38;10405545;27;96489;-77
2022/03/14 01:23:18;;;;;;;22.47;8.37;;;-2.00;55.70;;;-4.14;51.48;101506.34;10439696;27;96521;-77
2022/03/14 01:28:20;;;;;;;15.10;6.70;;;-2.00;56.30;;;-4.13;51.30;101513.25;10402455;27;98532;-78
2022/03/14 01:33:23;;;;;;;16.03;7.90;;;-2.00;55.60;;;-4.16;51.70;101510.72;10428705;27;96394;-77
2022/03/14 01:38:26;;;;;;;20.03;8.00;;;-2.00;56.50;;;-4.16;52.17;101528.91;10434237;27;96566;-77
2022/03/14 01:43:30;;;;;;;14.80;8.20;;;-2.00;56.40;;;-4.18;51.68;101520.31;10425213;27;96733;-77
2022/03/14 01:48:32;;;;;;;25.47;8.67;;;-2.00;56.70;;;-4.19;51.82;101529.00;10413712;27;96770;-78
2022/03/14 01:53:36;;;;;;;19.63;8.83;;;-2.10;57.30;;;-4.23;52.13;101532.56;10416534;27;96711;-78
2022/03/14 01:58:40;;;;;;;19.80;9.03;;;-2.10;56.90;;;-4.25;51.96;101536.09;10396976;28;96489;-77
2022/03/14 02:03:43;;;;;;;25.47;9.53;;;-2.10;56.70;;;-4.29;52.46;101532.72;10430211;27;96822;-78
2022/03/14 02:08:46;;;;;;;20.87;9.47;;;-2.10;57.10;;;-4.36;52.63;101546.75;10425440;27;96528;-77
2022/03/14 02:13:49;;;;;;;18.43;8.37;;;-2.20;57.10;;;-4.41;53.34;101546.88;10430475;27;96610;-77
2022/03/14 02:18:51;;;;;;;21.87;7.70;;;-2.20;57.70;;;-4.43;52.70;101558.19;10440840;27;96858;-77
2022/03/14 02:23:54;;;;;;;19.03;9.17;;;-2.30;57.40;;;-4.48;53.64;101560.03;10439951;27;96506;-77
2022/03/14 02:28:58;;;;;;;20.83;8.83;;;-2.30;58.50;;;-4.53;53.31;101559.31;10443955;27;96727;-77
2022/03/14 02:34:01;;;;;;;24.80;10.00;;;-2.30;57.10;;;-4.59;53.52;101571.53;10441281;27;96635;-77
2022/03/14 02:39:04;;;;;;;26.13;9.30;;;-2.40;57.00;;;-4.65;52.74;101571.69;10455487;27;96484;-77
2022/03/14 02:44:08;;;;;;;22.43;9.00;;;-2.40;56.10;;;-4.71;53.44;101574.44;10403590;27;96900;-78
2022/03/14 02:49:12;;;;;;;19.00;8.87;;;-2.50;56.50;;;-4.77;54.46;101582.38;10409212;27;96729;-78
2022/03/14 02:54:15;;;;;;;23.37;8.80;;;-2.60;59.70;;;-4.81;54.03;101579.88;10417097;27;97521;-78
2022/03/14 02:59:18;;;;;;;22.70;9.17;;;-2.60;58.20;;;-4.87;54.12;101586.06;10419877;27;96445;-78
2022/03/14 03:04:21;;;;;;;19.00;8.00;;;-2.70;58.30;;;-4.90;54.49;101580.94;10435738;27;96512;-78
2022/03/14 03:09:26;;;;;;;21.50;9.23;;;-2.70;58.90;;;-4.92;55.21;101590.47;10440059;27;96582;-78
2022/03/14 03:14:30;;;;;;;25.83;10.40;;;-2.70;59.80;;;-4.94;55.00;101589.69;10434362;27;96662;-78
2022/03/14 03:19:33;;;;;;;23.63;10.07;;;-2.70;59.90;;;-4.97;55.31;101593.22;10420321;27;96609;-78
2022/03/14 03:24:36;;;;;;;19.60;8.43;;;-2.80;60.40;;;-4.99;55.50;101596.72;10423531;27;96429;-78
2022/03/14 03:29:39;;;;;;;29.70;12.70;;;-2.80;60.30;;;-4.99;55.95;101597.56;10426801;27;98049;-78
2022/03/14 03:34:42;;;;;;;31.80;12.53;;;-2.80;61.30;;;-5.01;55.24;101603.69;10438980;27;96476;-77
2022/03/14 03:39:45;;;;;;;24.97;10.30;;;-2.80;58.70;;;-5.05;55.51;101602.03;10422434;27;97581;-78
2022/03/14 03:44:48;;;;;;;23.63;9.43;;;-2.90;60.40;;;-5.10;55.78;101609.91;10411665;27;98055;-77
2022/03/14 03:49:52;;;;;;;28.40;11.03;;;-2.90;59.70;;;-5.13;56.03;101605.66;10453057;27;96657;-77
2022/03/14 03:54:54;;;;;;;32.10;12.53;;;-3.00;61.40;;;-5.16;55.56;101612.63;10438849;27;96474;-78
2022/03/14 03:59:58;;;;;;;28.17;11.40;;;-3.00;59.60;;;-5.19;56.03;101617.91;10421061;27;96801;-78
2022/03/14 04:05:01;;;;;;;22.73;9.97;;;-3.00;59.20;;;-5.25;56.46;101613.69;10437731;27;96514;-78
2022/03/14 04:10:04;;;;;;;20.63;9.70;;;-3.00;61.50;;;-5.27;56.32;101623.25;10428776;27;96613;-78
2022/03/14 04:15:09;;;;;;;29.33;10.13;;;-3.00;60.90;;;-5.30;56.82;101625.03;10420023;27;96595;-78
2022/03/14 04:20:12;;;;;;;24.07;10.87;;;-3.10;61.90;;;-5.33;56.79;101628.56;10427827;27;96498;-78
2022/03/14 04:25:15;;;;;;;25.67;9.63;;;-3.10;61.60;;;-5.38;56.63;101638.16;10402836;27;96839;-77
2022/03/14 04:30:18;;;;;;;21.87;9.73;;;-3.10;60.60;;;-5.42;56.84;101634.78;10415608;27;96542;-78
2022/03/14 04:35:21;;;;;;;27.10;10.57;;;-3.20;61.50;;;-5.44;57.04;101649.50;10431143;27;96519;-78
2022/03/14 04:40:24;;;;;;;24.97;9.37;;;-3.20;60.00;;;-5.47;57.08;101649.56;10403319;27;96608;-78
2022/03/14 04:45:27;;;;;;;20.30;8.77;;;-3.30;61.20;;;-5.51;57.28;101652.25;10426604;27;96567;-78
2022/03/14 04:50:30;;;;;;;26.93;8.93;;;-3.30;61.00;;;-5.55;57.07;101663.53;10461086;27;96572;-78
2022/03/14 04:55:37;;;;;;;22.73;9.40;;;-3.40;62.70;;;-5.60;57.39;101666.22;10443473;27;96507;-78
2022/03/14 05:00:41;;;;;;;23.70;9.43;;;-3.40;61.40;;;-5.62;58.13;101667.16;10455049;27;97785;-78
2022/03/14 05:05:45;;;;;;;23.93;8.90;;;-3.40;63.90;;;-5.61;58.58;101681.81;10402628;27;96625;-78
2022/03/14 05:10:48;;;;;;;24.70;10.47;;;-3.40;63.50;;;-5.62;57.92;101678.34;10402077;28;96483;-80
2022/03/14 05:15:51;;;;;;;24.83;9.73;;;-3.40;62.40;;;-5.61;58.89;101693.00;10416481;27;96631;-79
2022/03/14 05:20:54;;;;;;;27.23;9.03;;;-3.40;63.50;;;-5.60;58.52;101686.09;10442856;27;96525;-79
2022/03/14 05:25:57;;;;;;;17.73;7.30;;;-3.40;63.60;;;-5.55;58.36;101686.88;10432598;27;96696;-79
2022/03/14 05:31:00;;;;;;;21.03;8.30;;;-3.40;62.40;;;-5.48;58.00;101704.84;10432208;27;96590;-78
2022/03/14 05:36:03;;;;;;;33.43;13.47;;;-3.40;61.60;;;-5.38;58.63;101700.34;10439207;27;96698;-79
2022/03/14 05:41:06;;;;;;;33.03;10.07;;;-3.30;63.00;;;-5.28;58.59;101704.44;10430070;27;98502;-78
2022/03/14 05:46:10;;;;;;;32.33;11.03;;;-3.20;62.40;;;-5.13;58.74;101708.47;10447667;27;98197;-80
2022/03/14 05:51:13;;;;;;;24.30;10.40;;;-3.10;63.90;;;-4.99;59.07;101718.56;10420968;27;96554;-79
2022/03/14 05:56:16;;;;;;;21.90;9.87;;;-3.00;64.40;;;-4.80;59.01;101722.47;10440972;27;96769;-80
2022/03/14 06:01:19;;;;;;;30.60;10.27;;;-2.80;65.10;;;-4.61;59.23;101718.59;10452286;27;97053;-79
2022/03/14 06:06:23;;;;;;;24.13;10.83;;;-2.70;64.30;;;-4.41;58.63;101725.06;10442565;27;96506;-80
2022/03/14 06:11:27;;;;;;;25.50;9.17;;;-2.50;62.40;;;-4.21;57.68;101740.16;10418180;27;96695;-79
2022/03/14 06:16:31;;;;;;;25.47;10.43;;;-2.30;62.60;;;-4.03;58.08;101740.56;10432704;27;97042;-80
2022/03/14 06:21:34;;;;;;;29.80;12.00;;;-2.10;63.40;;;-3.75;58.94;101745.09;10415245;28;98332;-77
2022/03/14 06:26:37;;;;;;;29.27;10.33;;;-1.90;63.70;;;-3.43;58.51;101751.19;10377415;28;96467;-78
2022/03/14 06:31:40;;;;;;;27.77;12.30;;;-1.70;63.70;;;-3.15;57.98;101754.75;10376077;28;98511;-77
2022/03/14 06:36:44;;;;;;;29.57;12.87;;;-1.40;62.80;;;-2.83;57.52;101752.97;10399307;28;96438;-79
2022/03/14 06:41:47;;;;;;;41.93;16.97;;;-1.10;62.00;;;-2.54;56.83;101760.78;10374147;28;98166;-77
2022/03/14 06:46:52;;;;;;;33.83;14.10;;;-0.80;62.00;;;-2.22;56.35;101761.53;10376191;27;98032;-78
2022/03/14 06:51:55;;;;;;;34.70;15.23;;;-0.50;61.40;;;-1.84;55.53;101762.09;10362420;28;96528;-78
2022/03/14 06:56:58;;;;;;;43.50;19.47;;;-0.20;60.70;;;-1.41;53.98;101764.09;10372943;28;96660;-78
2022/03/14 07:02:02;;;;;;;41.73;17.27;;;0.20;59.50;;;-0.95;51.82;101767.69;10409620;28;96569;-78
2022/03/14 07:07:06;;;;;;;30.87;14.67;;;0.60;58.40;;;-0.52;50.48;101764.31;10365076;28;96934;-77
2022/03/14 07:12:13;;;;;;;31.50;13.43;;;1.00;57.40;;;-0.07;47.60;101768.63;10373008;28;96493;-80
2022/03/14 07:17:16;;;;;;;28.30;13.20;;;1.40;55.80;;;0.31;46.92;101768.84;10366722;28;98522;-77
2022/03/14 07:22:21;;;;;;;23.67;12.50;;;1.80;55.10;;;0.70;45.39;101769.75;10402032;27;96490;-77
2022/03/14 07:27:28;;;;;;;22.80;10.57;;;2.20;54.20;;;1.11;45.68;101772.34;10422676;27;96611;-78
2022/03/14 07:32:31;;;;;;;22.77;12.87;;;2.60;54.00;;;1.50;44.10;101772.28;10434546;27;96631;-78
2022/03/14 07:37:34;;;;;;;21.37;11.13;;;3.00;52.90;;;1.84;42.45;101776.78;10407020;27;98122;-78
2022/03/14 07:42:48;;;;;;;27.10;13.47;;;3.30;51.70;;;2.20;41.21;101769.81;10422262;27;96524;-77
2022/03/14 07:47:57;;;;;;;19.77;10.57;;;3.70;51.20;;;2.49;39.93;101771.00;10427591;27;96588;-77
2022/03/14 07:53:00;;;;;;;18.90;11.53;;;4.00;50.20;;;2.77;39.02;101767.81;10417661;27;96662;-77
2022/03/14 07:58:03;;;;;;;25.43;11.43;;;4.30;49.70;;;3.07;38.82;101773.25;10416781;27;96556;-79
2022/03/14 08:03:06;;;;;;;24.67;13.40;;;4.60;48.80;;;3.41;38.56;101769.63;10432474;27;96742;-78
2022/03/14 08:08:09;;;;;;;20.97;11.87;;;4.90;48.60;;;4.14;38.09;101770.81;10420913;27;96628;-78
2022/03/14 08:13:12;;;;;;;20.07;11.03;;;5.30;48.30;;;4.88;35.43;101769.94;10426545;27;96495;-78
2022/03/14 08:18:15;;;;;;;24.33;11.80;;;5.80;47.60;;;5.68;34.36;101771.09;10429440;27;97618;-76
2022/03/14 08:23:18;;;;;;;22.37;12.03;;;6.30;46.40;;;6.17;32.56;101768.78;10408482;27;96595;-76
2022/03/14 08:28:21;;;;;;;21.13;11.67;;;6.90;45.80;;;6.75;31.71;101773.75;10445433;27;98589;-78
2022/03/14 08:33:25;;;;;;;23.87;12.27;;;7.40;44.50;;;7.27;31.16;101775.44;10416759;27;96630;-78
2022/03/14 08:38:28;;;;;;;23.60;12.47;;;7.80;43.70;;;7.74;30.55;101780.00;10424467;27;96559;-78
2022/03/14 08:43:31;;;;;;;24.77;12.93;;;8.20;42.90;;;8.17;29.85;101767.09;10403104;27;96588;-78
2022/03/14 08:48:34;;;;;;;19.80;11.40;;;8.70;42.60;;;8.39;29.23;101770.78;10401153;28;97578;-77
2022/03/14 08:53:36;;;;;;;19.70;12.37;;;9.10;42.10;;;8.92;28.48;101774.66;10444258;27;96531;-77
2022/03/14 08:58:39;;;;;;;22.93;11.97;;;9.50;40.70;;;9.34;27.50;101766.97;10404238;27;96572;-77
2022/03/14 09:03:42;;;;;;;20.37;12.33;;;10.00;41.10;;;9.75;27.45;101760.97;10402703;27;96564;-77
2022/03/14 09:08:45;;;;;;;19.47;10.80;;;10.40;40.10;;;10.42;25.99;101752.78;10403320;28;97411;-77
2022/03/14 09:13:48;;;;;;;18.77;9.63;;;10.80;39.40;;;11.27;24.95;101757.03;10395966;27;96637;-78
2022/03/14 09:18:52;;;;;;;14.37;9.10;;;11.40;38.90;;;11.78;24.03;101748.91;10418198;27;96575;-79
2022/03/14 09:23:56;;;;;;;27.10;13.90;;;11.90;38.20;;;12.52;23.28;101753.69;10401281;28;97630;-78
2022/03/14 09:29:00;;;;;;;12.27;8.77;;;12.60;37.30;;;13.07;21.95;101747.66;10416551;27;96595;-78
2022/03/14 09:34:03;;;;;;;29.38;15.80;;;13.10;36.20;;;13.19;21.31;101742.97;10433292;27;97154;-79
2022/03/14 09:39:12;;;;;;;23.27;13.90;;;13.40;34.80;;;12.77;21.07;101738.91;10400835;28;96516;-78
2022/03/14 09:44:20;;;;;;;14.23;9.13;;;13.40;33.90;;;12.51;21.07;101744.03;10432240;27;97370;-78
2022/03/14 09:49:26;;;;;;;13.03;7.67;;;13.40;33.20;;;12.16;21.26;101741.09;10435710;27;96483;-78
2022/03/14 09:54:30;;;;;;;11.93;7.70;;;13.40;32.40;;;11.81;21.93;101739.81;10433594;27;96542;-78
2022/03/14 09:59:37;;;;;;;12.43;7.37;;;13.30;32.80;;;12.05;21.68;101740.28;10439490;27;96673;-78
2022/03/14 10:04:40;;;;;;;15.93;9.25;;;13.60;33.00;;;12.74;21.18;101736.53;10434277;27;97477;-78
2022/03/14 10:09:43;;;;;;;10.65;6.78;;;14.10;32.70;;;13.43;19.84;101719.28;10426595;27;96760;-78
2022/03/14 10:14:46;;;;;;;9.43;6.55;;;14.50;32.10;;;13.43;20.04;101732.63;10414192;27;99258;-78
2022/03/14 10:19:59;;;;;;;10.70;6.70;;;14.60;31.50;;;13.48;19.96;101730.34;10400442;27;96683;-78
2022/03/14 10:25:20;;;;;;;9.75;7.30;;;14.70;31.50;;;13.93;19.93;101719.66;10399161;27;96539;-78
2022/03/14 10:30:34;;;;;;;10.18;6.15;;;15.00;31.50;;;14.70;19.81;101728.81;10429384;27;96516;-78
2022/03/14 10:35:40;;;;;;;10.30;5.95;;;15.50;31.00;;;15.40;18.79;101714.41;10427361;27;96986;-78
2022/03/14 10:40:45;;;;;;;11.00;5.93;;;16.10;31.00;;;15.89;18.56;101709.19;10415331;27;96716;-81
2022/03/14 10:46:00;;;;;;;9.20;5.72;;;16.70;31.00;;;16.46;18.15;101712.72;10433988;27;96647;-80
2022/03/14 10:51:14;;;;;;;8.52;6.28;;;17.20;30.10;;;17.15;17.49;101706.84;10464372;27;96622;-80
2022/03/14 10:56:17;;;;;;;7.55;5.25;;;17.80;30.10;;;17.72;16.90;101706.59;10472663;27;96574;-80
2022/03/14 11:01:21;;;;;;;7.85;5.10;;;18.40;29.70;;;18.17;16.44;101703.03;10451254;27;97400;-80
2022/03/14 11:06:27;;;;;;;8.68;5.00;;;18.80;29.50;;;18.54;15.95;101690.63;10407958;28;97022;-80
2022/03/14 11:11:32;;;;;;;8.02;5.05;;;19.20;29.20;;;18.56;15.90;101702.03;10398009;28;96553;-80
2022/03/14 11:16:35;;;;;;;7.93;5.05;;;19.40;28.60;;;18.55;15.82;101684.22;10410256;27;97550;-78
2022/03/14 11:21:38;;;;;;;8.15;5.93;;;19.50;28.60;;;18.52;15.72;101679.19;10438421;27;96489;-80
2022/03/14 11:26:46;;;;;;;26.98;6.05;;;19.50;28.30;;;18.50;15.82;101675.84;10398127;28;96631;-79
2022/03/14 11:31:52;;;;;;;11.33;6.97;;;19.50;28.10;;;19.05;16.05;101667.31;10418154;27;97693;-81
2022/03/14 11:36:57;;;;;;;8.88;4.88;;;20.00;28.40;;;19.44;15.11;101660.75;10438396;27;96577;-80
2022/03/14 11:42:01;;;;;;;7.70;4.80;;;20.40;28.20;;;19.89;15.43;101656.84;10418721;27;97392;-79
2022/03/14 11:47:07;;;;;;;7.75;4.82;;;20.80;28.20;;;20.02;15.42;101645.34;10427428;27;96531;-79
2022/03/14 11:52:20;;;;;;;6.65;5.10;;;20.90;27.70;;;19.98;15.19;101646.78;10432660;27;96557;-79
2022/03/14 11:57:41;;;;;;;7.25;5.35;;;21.10;27.30;;;20.07;14.53;101636.66;10456215;27;96586;-81
2022/03/14 12:02:44;;;;;;;7.93;5.15;;;21.20;27.10;;;20.23;14.98;101641.78;10404309;27;96890;-79
2022/03/14 12:07:47;;;;;;;12.15;6.93;;;21.30;27.00;;;19.91;14.55;101638.63;10448521;27;96555;-79
2022/03/14 12:12:51;;;;;;;7.25;5.53;;;21.20;27.10;;;19.55;14.76;101643.22;10427047;27;96946;-79
2022/03/14 12:17:53;;;;;;;7.88;5.18;;;20.80;26.90;;;19.34;15.42;101633.25;10425511;27;98308;-79
2022/03/14 12:22:56;;;;;;;13.15;7.85;;;20.60;26.90;;;19.02;15.33;101635.38;10418455;27;96655;-79
2022/03/14 12:28:24;;;;;;;7.88;5.10;;;20.40;27.00;;;18.92;15.24;101629.44;10452679;27;96424;-79
2022/03/14 12:33:35;;;;;;;9.23;6.00;;;20.20;26.50;;;18.77;15.83;101628.59;10396238;27;97063;-79
2022/03/14 12:38:38;;;;;;;7.18;5.15;;;20.20;27.30;;;18.22;15.75;101621.78;10415645;27;96462;-79
2022/03/14 12:43:43;;;;;;;8.40;5.63;;;19.80;27.30;;;17.17;16.71;101635.00;10428429;27;96899;-78
2022/03/14 12:48:55;;;;;;;11.25;6.90;;;19.00;27.50;;;16.40;17.39;101646.31;10443555;27;96680;-78
2022/03/14 12:54:01;;;;;;;7.60;5.50;;;18.50;27.90;;;16.18;17.80;101623.72;10401008;27;96622;-77
2022/03/14 12:59:09;;;;;;;9.40;5.32;;;18.40;28.20;;;16.05;18.03;101628.75;10423616;27;96511;-78
2022/03/14 13:04:22;;;;;;;6.72;4.55;;;18.30;28.20;;;16.10;17.87;101621.06;10409972;27;96757;-77
2022/03/14 13:09:30;;;;;;;8.50;5.50;;;18.30;27.90;;;16.10;18.51;101625.59;10402529;27;98584;-77
2022/03/14 13:14:37;;;;;;;8.30;4.93;;;18.30;28.50;;;15.98;18.29;101633.97;10449784;27;96728;-78
2022/03/14 13:19:40;;;;;;;9.20;5.35;;;18.20;28.30;;;15.89;18.19;101628.75;10443738;27;97666;-78
2022/03/14 13:24:45;;;;;;;6.03;3.90;;;18.00;28.50;;;15.90;18.76;101625.94;10427378;27;96501;-79
2022/03/14 13:29:48;;;;;;;11.50;5.07;;;18.00;28.50;;;15.76;18.70;101632.78;10413926;27;96628;-77
2022/03/14 13:35:08;;;;;;;8.10;4.85;;;17.70;28.60;;;15.60;18.96;101630.06;10441596;27;96976;-77
2022/03/14 13:40:22;;;;;;;12.15;5.50;;;17.50;28.80;;;15.46;19.17;101628.03;10436261;27;96554;-79
2022/03/14 13:45:25;;;;;;;8.55;6.10;;;17.40;29.10;;;15.45;18.86;101634.41;10426563;27;96987;-78
2022/03/14 13:50:28;;;;;;;7.97;4.57;;;17.30;29.00;;;15.47;19.51;101629.69;10417772;27;96543;-78
2022/03/14 13:55:32;;;;;;;7.45;4.75;;;17.30;29.10;;;15.43;19.46;101631.06;10407987;27;96589;-78
2022/03/14 14:00:35;;;;;;;9.18;5.28;;;17.30;29.20;;;15.29;19.50;101627.16;10434133;27;96466;-77
2022/03/14 14:05:39;;;;;;;8.07;5.05;;;17.10;29.30;;;15.08;19.80;101630.28;10425008;27;96643;-78
2022/03/14 14:10:46;;;;;;;9.25;5.75;;;16.90;29.40;;;15.27;19.98;101634.53;10414043;27;96579;-79
2022/03/14 14:15:50;;;;;;;9.15;5.30;;;17.00;30.00;;;15.29;19.85;101631.69;10412331;27;96575;-79
2022/03/14 14:20:54;;;;;;;7.90;4.93;;;17.10;29.60;;;15.27;19.96;101632.69;10417461;27;96651;-79
2022/03/14 14:25:58;;;;;;;6.65;4.32;;;17.20;29.70;;;15.78;20.07;101632.63;10443835;27;96568;-79
2022/03/14 14:31:02;;;;;;;6.18;4.10;;;17.60;29.80;;;15.98;19.63;101630.44;10411999;27;96756;-77
2022/03/14 14:36:07;;;;;;;7.35;4.68;;;17.80;29.50;;;15.91;19.42;101626.78;10435743;27;96608;-79
2022/03/14 14:41:12;;;;;;;7.53;5.30;;;17.80;29.40;;;15.95;19.71;101622.72;10439760;27;97851;-79
2022/03/14 14:46:18;;;;;;;8.23;4.88;;;17.80;29.30;;;15.92;19.55;101623.09;10423117;27;97756;-88
2022/03/14 14:56:58;;;;;;;6.45;4.15;;;17.80;29.50;;;15.56;19.37;101618.00;10236252;22;96924;-84
2022/03/14 15:02:03;;;;;;;8.00;4.40;;;17.70;29.30;;;15.18;20.17;101612.25;10328382;28;96669;-81
2022/03/14 15:07:07;;;;;;;6.78;4.75;;;17.40;29.60;;;15.24;20.45;101618.81;10327635;28;97647;-81
2022/03/14 15:12:10;;;;;;;8.80;3.85;;;17.40;29.70;;;15.38;20.42;101612.78;10314407;28;98546;-82
2022/03/14 15:17:13;;;;;;;6.68;3.90;;;17.60;29.70;;;15.29;20.39;101603.06;10331956;28;96670;-84
2022/03/14 15:22:16;;;;;;;6.47;4.10;;;17.50;29.80;;;14.89;20.64;101617.19;10316063;28;97674;-85
2022/03/14 15:27:19;;;;;;;9.13;3.85;;;17.00;30.30;;;14.41;21.23;101621.25;10331914;28;96569;-84
2022/03/14 15:32:22;;;;;;;10.35;5.68;;;16.40;30.30;;;13.89;22.12;101613.22;10327576;28;98386;-84
2022/03/14 15:37:28;;;;;;;8.18;4.75;;;15.80;30.90;;;13.38;22.50;101618.28;10339551;28;97523;-84
2022/03/14 15:42:32;;;;;;;9.77;5.00;;;15.20;31.50;;;12.96;22.85;101604.63;10352503;28;97331;-85
2022/03/14 15:47:35;;;;;;;10.33;5.30;;;14.70;31.90;;;12.60;23.27;101614.34;10312139;28;98316;-85
2022/03/14 15:52:38;;;;;;;17.27;7.90;;;14.30;32.10;;;12.30;23.67;101628.75;10331469;28;96554;-85
2022/03/14 15:57:43;;;;;;;13.50;6.93;;;13.90;32.40;;;11.98;23.98;101629.06;10329454;28;96742;-85
2022/03/14 16:02:46;;;;;;;7.43;4.83;;;13.50;33.00;;;11.69;24.60;101639.69;10329030;28;96870;-84
2022/03/14 16:07:49;;;;;;;13.83;6.90;;;13.20;33.30;;;11.34;25.16;101635.78;10322733;28;96650;-84
2022/03/14 16:12:53;;;;;;;14.53;7.07;;;12.90;33.60;;;11.03;25.56;101644.78;10345697;28;96708;-84
2022/03/14 16:17:57;;;;;;;28.23;11.70;;;12.70;34.00;;;10.66;26.03;101642.69;10343255;28;96685;-84
2022/03/14 16:23:00;;;;;;;31.47;12.13;;;12.40;34.30;;;10.29;26.25;101645.84;10335020;28;97037;-83
2022/03/14 16:28:04;;;;;;;25.43;11.43;;;12.00;34.90;;;9.88;27.28;101651.97;10319540;28;96657;-85
2022/03/14 16:33:07;;;;;;;20.17;8.53;;;11.70;35.00;;;9.49;27.88;101658.75;10316557;28;96926;-84
2022/03/14 16:38:10;;;;;;;18.17;8.33;;;11.30;35.50;;;9.05;29.03;101663.16;10335224;28;97362;-85
2022/03/14 16:43:13;;;;;;;21.80;6.77;;;10.90;36.10;;;8.59;29.96;101677.41;10329657;28;96622;-84
2022/03/14 16:48:16;;;;;;;25.00;8.53;;;10.50;36.90;;;8.12;30.65;101681.84;10341292;28;96538;-84
2022/03/14 16:53:29;;;;;;;57.30;22.93;;;10.00;37.80;;;7.74;31.15;101687.38;10333466;28;97917;-84
2022/03/14 16:58:36;;;;;;;40.53;18.33;;;9.60;38.50;;;7.40;31.56;101678.41;10339667;28;97506;-83
2022/03/14 17:03:39;;;;;;;42.63;16.73;;;9.30;38.60;;;7.10;32.17;101684.94;10319589;28;96809;-83
2022/03/14 17:08:43;;;;;;;79.50;24.37;;;9.00;39.10;;;6.82;32.41;101687.81;10335529;28;96529;-83
2022/03/14 17:13:46;;;;;;;53.10;18.40;;;8.70;39.40;;;6.54;33.25;101692.41;10318882;28;96708;-83
2022/03/14 17:18:49;;;;;;;46.73;20.20;;;8.50;40.00;;;6.33;33.61;101704.41;10315893;28;96633;-83
2022/03/14 17:23:52;;;;;;;87.80;31.07;;;8.20;40.30;;;6.20;33.56;101720.22;10335152;28;96564;-82
2022/03/14 17:28:54;;;;;;;62.77;23.53;;;8.00;39.30;;;6.19;33.53;101728.25;10333921;28;96525;-83
2022/03/14 17:33:58;;;;;;;52.87;21.30;;;7.90;39.20;;;6.15;33.63;101741.66;10331124;28;97988;-84
2022/03/14 17:39:01;;;;;;;37.93;15.60;;;7.80;39.40;;;6.03;33.40;101737.19;10335771;28;97163;-83
2022/03/14 17:44:05;;;;;;;57.27;22.70;;;7.80;40.10;;;5.84;35.01;101736.66;10334547;28;96622;-84
2022/03/14 17:49:08;;;;;;;34.43;14.67;;;7.60;39.90;;;5.53;34.93;101759.75;10331363;22;96752;-77
2022/03/14 17:54:11;;;;;;;25.37;11.07;;;7.40;41.60;;;5.21;35.57;101784.63;10265984;28;96558;-79
2022/03/14 17:59:15;;;;;;;30.77;12.07;;;7.10;41.60;;;4.89;35.97;101787.44;10237619;28;96502;-77
2022/03/14 18:04:18;;;;;;;30.27;12.23;;;6.80;41.90;;;4.57;36.93;101781.47;10235867;28;96558;-77
2022/03/14 18:09:21;;;;;;;34.67;13.27;;;6.60;42.70;;;4.25;37.89;101764.91;10261118;28;97483;-77
2022/03/14 18:14:25;;;;;;;45.87;19.07;;;6.30;43.80;;;3.97;38.22;101770.91;10275261;28;96482;-77
2022/03/14 18:19:28;;;;;;;52.13;21.83;;;6.00;43.60;;;3.73;39.15;101775.78;10293357;28;96480;-77
2022/03/14 18:24:33;;;;;;;125.87;39.80;;;5.70;44.10;;;3.54;39.58;101780.31;10284708;28;96476;-77
2022/03/14 18:29:36;;;;;;;110.83;35.87;;;5.50;44.40;;;3.41;40.20;101783.63;10255492;28;97532;-78
2022/03/14 18:34:46;;;;;;;108.30;33.63;;;5.40;45.30;;;3.27;41.08;101795.81;10237038;28;96627;-77
2022/03/14 18:39:49;;;;;;;104.87;32.57;;;5.20;46.60;;;3.15;41.66;101789.44;10252160;28;96620;-77
2022/03/14 18:45:12;;;;;;;97.67;30.30;;;5.10;46.60;;;3.04;41.66;101790.00;10262246;28;96439;-77
2022/03/14 18:50:16;;;;;;;84.90;27.53;;;4.90;46.80;;;2.95;42.01;101791.34;10304874;28;96449;-78
2022/03/14 18:55:41;;;;;;;37.30;16.33;;;4.80;47.80;;;2.84;42.27;101798.06;10316019;28;96540;-77
2022/03/14 19:00:47;;;;;;;33.40;14.27;;;4.70;48.10;;;2.75;43.12;101802.00;10297252;28;97053;-77
2022/03/14 19:05:54;;;;;;;25.97;11.70;;;4.60;48.70;;;2.69;43.05;101812.81;10315959;28;98211;-77
2022/03/14 19:10:57;;;;;;;18.10;9.30;;;4.60;49.00;;;2.64;43.43;101833.22;10319860;28;96469;-76
2022/03/14 19:16:02;;;;;;;15.93;8.60;;;4.50;49.90;;;2.53;43.15;101831.13;10309153;28;96648;-76
2022/03/14 19:21:06;;;;;;;18.63;8.43;;;4.40;48.50;;;2.42;43.59;101836.91;10304644;28;96595;-77
2022/03/14 19:26:09;;;;;;;17.00;7.63;;;4.30;48.30;;;2.32;44.02;101840.88;10328846;28;98096;-77
2022/03/14 19:31:14;;;;;;;15.83;7.77;;;4.20;49.80;;;2.23;44.50;101856.25;10317046;28;96549;-77
2022/03/14 19:36:19;;;;;;;13.33;7.27;;;4.10;50.10;;;2.17;44.41;101867.88;10333024;28;96567;-77
2022/03/14 19:41:23;;;;;;;11.67;5.77;;;4.10;50.20;;;2.13;44.86;101875.03;10309634;28;96821;-79
2022/03/14 19:46:27;;;;;;;14.73;7.83;;;4.00;49.80;;;2.03;44.16;101841.44;10322786;28;96734;-79
2022/03/14 19:51:32;;;;;;;16.10;7.77;;;3.90;49.10;;;1.91;45.69;101836.78;10324290;28;97621;-81
2022/03/14 19:56:42;;;;;;;24.35;11.02;;;3.80;50.90;;;1.79;46.00;101870.50;10305050;28;96579;-87
2022/03/14 20:01:47;;;;;;;15.90;7.07;;;3.70;52.30;;;1.75;46.74;101910.91;10312087;28;98146;-80
2022/03/14 20:06:52;;;;;;;15.07;7.00;;;3.60;52.40;;;1.67;46.25;101917.38;10326843;28;97812;-81
2022/03/14 20:11:57;;;;;;;15.20;6.87;;;3.60;51.20;;;1.64;46.78;101909.69;10299905;28;96851;-80
2022/03/14 20:17:00;;;;;;;21.93;9.37;;;3.50;51.90;;;1.54;46.96;101894.34;10313714;28;97052;-80
2022/03/14 20:22:04;;;;;;;45.83;15.10;;;3.50;52.20;;;1.50;46.96;101899.78;10336153;28;96862;-80
2022/03/14 20:27:07;;;;;;;69.23;22.13;;;3.40;52.60;;;1.46;46.78;101904.34;10324286;28;97082;-79
2022/03/14 20:32:10;;;;;;;45.67;17.20;;;3.40;52.20;;;1.40;47.28;101895.91;10303353;28;96489;-80
2022/03/14 20:37:14;;;;;;;48.70;19.57;;;3.30;53.20;;;1.33;47.42;101900.56;10306937;28;97077;-80
2022/03/14 20:42:18;;;;;;;18.23;9.13;;;3.20;52.80;;;1.28;47.37;101903.38;10319976;28;96866;-80
2022/03/14 20:47:21;;;;;;;19.67;8.63;;;3.20;52.60;;;1.19;47.64;101905.53;10324810;28;97544;-80
2022/03/14 20:52:25;;;;;;;20.00;8.90;;;3.10;53.10;;;1.07;47.87;101914.75;10299034;28;96529;-80